Time;durP1;ratioP1;P1;durP2;ratioP2;P2;SDS_P1;SDS_P2;PMS_P1;PMS_P2;Temp;Humidity;BMP_temperature;BMP_pressure;BME280_temperature;BME280_humidity;BME280_pressure;Samples;Min_cycle;Max_cycle;Signal;HPM_P1;HPM_P2
2022/04/27 00:01:35;;;;;;;8.25;2.47;;;;;;;;;;5035890;28;20544;-62
2022/04/27 00:04:01;;;;;;;13.00;2.42;;;;;;;;;;5038056;28;20098;-62
2022/04/27 00:06:28;;;;;;;5.68;2.15;;;;;;;;;;5037501;28;20052;-63
2022/04/27 00:08:55;;;;;;;6.75;2.40;;;;;;;;;;5037916;28;20049;-63
2022/04/27 00:11:22;;;;;;;10.52;2.72;;;;;;;;;;5035254;28;20577;-63
2022/04/27 00:13:48;;;;;;;9.38;2.38;;;;;;;;;;5037920;28;20051;-63
2022/04/27 00:16:15;;;;;;;5.00;2.10;;;;;;;;;;5040129;28;20037;-63
2022/04/27 00:18:42;;;;;;;5.40;2.55;;;;;;;;;;5040899;28;20029;-62
2022/04/27 00:21:08;;;;;;;7.63;2.25;;;;;;;;;;5039378;28;20127;-62
2022/04/27 00:23:36;;;;;;;7.32;2.28;;;;;;;;;;5036887;28;20052;-63
2022/04/27 00:26:02;;;;;;;6.97;2.10;;;;;;;;;;5041900;28;20056;-64
2022/04/27 00:28:29;;;;;;;8.55;2.67;;;;;;;;;;5042093;28;20041;-64
2022/04/27 00:30:56;;;;;;;5.38;1.83;;;;;;;;;;5041859;28;20040;-63
2022/04/27 00:33:22;;;;;;;7.78;2.00;;;;;;;;;;5040887;28;20041;-63
2022/04/27 00:35:49;;;;;;;4.13;1.73;;;;;;;;;;5041898;28;20033;-63
2022/04/27 00:38:16;;;;;;;5.97;2.17;;;;;;;;;;5041719;28;20120;-63
2022/04/27 00:40:43;;;;;;;4.63;2.05;;;;;;;;;;5040832;28;20049;-63
2022/04/27 00:43:09;;;;;;;8.98;2.50;;;;;;;;;;5041132;28;20068;-62
2022/04/27 00:45:36;;;;;;;8.23;2.17;;;;;;;;;;5041662;28;20041;-63
2022/04/27 00:48:03;;;;;;;6.60;2.40;;;;;;;;;;5041486;28;20063;-62
2022/04/27 00:50:30;;;;;;;5.22;1.85;;;;;;;;;;5040744;28;20465;-62
2022/04/27 00:52:57;;;;;;;6.00;1.58;;;;;;;;;;5039204;28;20040;-62
2022/04/27 00:55:24;;;;;;;7.43;2.08;;;;;;;;;;5041663;28;20033;-66
2022/04/27 00:57:51;;;;;;;5.22;1.40;;;;;;;;;;5042317;28;20546;-61
2022/04/27 01:00:18;;;;;;;8.20;1.48;;;;;;;;;;5042564;28;20805;-64
2022/04/27 01:02:45;;;;;;;6.90;1.50;;;;;;;;;;5040751;28;20037;-64
2022/04/27 01:05:12;;;;;;;7.70;1.10;;;;;;;;;;5041878;28;20449;-63
2022/04/27 01:07:39;;;;;;;6.70;1.45;;;;;;;;;;5040373;28;20033;-63
2022/04/27 01:10:07;;;;;;;9.48;1.50;;;;;;;;;;5041790;28;20044;-63
2022/04/27 01:12:34;;;;;;;4.57;1.33;;;;;;;;;;5023592;28;20047;-64
2022/04/27 01:15:00;;;;;;;6.22;1.30;;;;;;;;;;5041291;28;20264;-64
2022/04/27 01:17:27;;;;;;;5.03;1.52;;;;;;;;;;5039613;28;20040;-63
2022/04/27 01:19:54;;;;;;;5.18;1.42;;;;;;;;;;5039556;28;20127;-64
2022/04/27 01:22:21;;;;;;;6.07;1.45;;;;;;;;;;5039646;28;20071;-64
2022/04/27 01:24:49;;;;;;;5.18;1.30;;;;;;;;;;5040359;28;20045;-63
2022/04/27 01:27:15;;;;;;;5.95;1.90;;;;;;;;;;5037861;28;20493;-63
2022/04/27 01:29:42;;;;;;;12.52;2.22;;;;;;;;;;5038354;28;20040;-63
2022/04/27 01:32:10;;;;;;;6.00;1.83;;;;;;;;;;5039207;28;20057;-63
2022/04/27 01:34:37;;;;;;;4.90;1.70;;;;;;;;;;5039674;28;20093;-63
2022/04/27 01:39:48;;;;;;;4.90;1.30;;;;;;;;;;5039103;28;20102;-61
2022/04/27 01:42:16;;;;;;;3.33;1.40;;;;;;;;;;5038104;28;20528;-62
2022/04/27 01:44:42;;;;;;;5.47;1.58;;;;;;;;;;5038281;28;20037;-63
2022/04/27 01:47:09;;;;;;;4.40;1.33;;;;;;;;;;5039306;28;20036;-63
2022/04/27 01:49:36;;;;;;;4.47;1.40;;;;;;;;;;5039206;28;20094;-64
2022/04/27 01:54:48;;;;;;;7.30;1.58;;;;;;;;;;5038666;28;20048;-62
2022/04/27 01:57:14;;;;;;;5.53;1.20;;;;;;;;;;5020679;28;20039;-62
2022/04/27 01:59:41;;;;;;;5.95;1.23;;;;;;;;;;5038076;28;20060;-61
2022/04/27 02:02:09;;;;;;;7.25;1.45;;;;;;;;;;5019708;28;20037;-61
2022/04/27 02:04:36;;;;;;;3.65;1.25;;;;;;;;;;5037569;28;20492;-60
2022/04/27 02:07:04;;;;;;;8.07;1.80;;;;;;;;;;5039043;28;20041;-61
2022/04/27 02:09:31;;;;;;;4.38;1.60;;;;;;;;;;5037964;28;20045;-61
2022/04/27 02:11:57;;;;;;;3.83;1.20;;;;;;;;;;5038501;28;20057;-62
2022/04/27 02:14:24;;;;;;;3.85;1.60;;;;;;;;;;5037854;28;20037;-61
2022/04/27 02:16:51;;;;;;;4.07;1.20;;;;;;;;;;5038093;28;20037;-61
2022/04/27 02:19:17;;;;;;;3.60;1.35;;;;;;;;;;5039186;28;20043;-62
2022/04/27 02:21:44;;;;;;;7.70;1.38;;;;;;;;;;5036560;28;20041;-62
2022/04/27 02:24:11;;;;;;;4.93;1.30;;;;;;;;;;5039794;28;20529;-61
2022/04/27 02:26:38;;;;;;;3.53;1.00;;;;;;;;;;5036572;28;20049;-60
2022/04/27 02:29:04;;;;;;;3.42;0.95;;;;;;;;;;5037643;28;20079;-61
2022/04/27 02:31:36;;;;;;;3.47;1.08;;;;;;;;;;5035919;28;20513;-63
2022/04/27 02:34:03;;;;;;;2.63;0.80;;;;;;;;;;5020908;28;20161;-62
2022/04/27 02:36:31;;;;;;;3.55;1.38;;;;;;;;;;4969018;28;20084;-57
2022/04/27 02:38:58;;;;;;;4.07;1.40;;;;;;;;;;4974003;28;20057;-59
2022/04/27 02:41:25;;;;;;;3.95;1.65;;;;;;;;;;4970444;28;20043;-60
2022/04/27 02:43:51;;;;;;;9.82;2.28;;;;;;;;;;4973606;28;20089;-59
2022/04/27 02:46:18;;;;;;;8.65;2.40;;;;;;;;;;4973640;28;20562;-60
2022/04/27 02:54:15;;;;;;;5.57;2.20;;;;;;;;;;4972338;28;20057;-57
2022/04/27 02:56:44;;;;;;;6.72;2.65;;;;;;;;;;4971513;28;20153;-59
2022/04/27 02:59:12;;;;;;;10.43;2.58;;;;;;;;;;4972025;28;20042;-60
2022/04/27 03:01:38;;;;;;;9.13;2.63;;;;;;;;;;4970521;28;20041;-59
2022/04/27 03:04:06;;;;;;;6.53;2.45;;;;;;;;;;4972157;28;20047;-62
2022/04/27 03:06:32;;;;;;;8.27;2.70;;;;;;;;;;4972662;28;20041;-60
2022/04/27 03:08:59;;;;;;;5.07;2.00;;;;;;;;;;4955593;28;20035;-57
2022/04/27 03:11:26;;;;;;;5.53;1.90;;;;;;;;;;4971125;28;20534;-60
2022/04/27 03:13:52;;;;;;;4.40;1.90;;;;;;;;;;5001436;28;20052;-58
2022/04/27 03:16:19;;;;;;;5.53;1.45;;;;;;;;;;5036906;28;20106;-60
2022/04/27 03:18:46;;;;;;;6.00;1.60;;;;;;;;;;5038632;28;20062;-58
2022/04/27 03:21:12;;;;;;;8.02;1.88;;;;;;;;;;5009227;28;20049;-59
2022/04/27 03:23:39;;;;;;;5.50;1.88;;;;;;;;;;5011572;28;20146;-61
2022/04/27 03:26:06;;;;;;;5.18;1.77;;;;;;;;;;5017675;28;20451;-59
2022/04/27 03:28:33;;;;;;;5.00;1.55;;;;;;;;;;5017205;28;20038;-59
2022/04/27 03:30:59;;;;;;;7.63;1.65;;;;;;;;;;5017335;28;20047;-59
2022/04/27 03:33:26;;;;;;;5.15;1.73;;;;;;;;;;5005641;28;20583;-59
2022/04/27 03:35:53;;;;;;;7.78;1.73;;;;;;;;;;5016687;28;20123;-59
2022/04/27 03:38:20;;;;;;;5.18;1.55;;;;;;;;;;5016442;28;20838;-57
2022/04/27 03:40:47;;;;;;;4.20;1.67;;;;;;;;;;5017551;28;20045;-60
2022/04/27 03:43:14;;;;;;;5.78;2.33;;;;;;;;;;5017022;28;20060;-59
2022/04/27 03:45:42;;;;;;;5.90;2.25;;;;;;;;;;5015010;28;20041;-58
2022/04/27 03:48:08;;;;;;;6.93;2.38;;;;;;;;;;5017623;28;20052;-59
2022/04/27 03:50:35;;;;;;;6.45;2.72;;;;;;;;;;5016858;28;20041;-59
2022/04/27 03:53:02;;;;;;;6.03;2.58;;;;;;;;;;5013992;28;20049;-65
2022/04/27 03:55:33;;;;;;;10.52;2.97;;;;;;;;;;5017449;28;20061;-63
2022/04/27 03:58:01;;;;;;;7.30;3.45;;;;;;;;;;5016577;28;20448;-62
2022/04/27 04:00:31;;;;;;;8.02;3.20;;;;;;;;;;5017519;28;20100;-63
2022/04/27 04:02:59;;;;;;;7.10;3.30;;;;;;;;;;4998593;28;20037;-62
2022/04/27 04:05:26;;;;;;;8.85;3.40;;;;;;;;;;5017661;28;20147;-62
2022/04/27 04:07:53;;;;;;;7.03;3.15;;;;;;;;;;5016180;28;20049;-62
2022/04/27 04:10:19;;;;;;;6.93;3.08;;;;;;;;;;5016930;28;20041;-62
2022/04/27 04:12:46;;;;;;;8.40;2.40;;;;;;;;;;5016176;28;20099;-62
2022/04/27 04:15:13;;;;;;;6.43;2.00;;;;;;;;;;5017332;28;20041;-62
2022/04/27 04:17:46;;;;;;;3.72;1.90;;;;;;;;;;5016497;28;20052;-62
2022/04/27 04:20:14;;;;;;;4.43;2.40;;;;;;;;;;5017097;28;20555;-62
2022/04/27 04:22:41;;;;;;;5.85;2.38;;;;;;;;;;5022410;28;20466;-62
2022/04/27 04:28:35;;;;;;;7.82;3.38;;;;;;;;;;5035920;28;20098;-62
2022/04/27 04:30:43;;;;;;;4.70;2.40;;;;;;;;;;5027595;28;20058;-61
2022/04/27 04:33:10;;;;;;;7.30;2.90;;;;;;;;;;5036494;28;20516;-61
2022/04/27 04:35:37;;;;;;;4.80;2.35;;;;;;;;;;5036844;28;20138;-61
2022/04/27 04:38:04;;;;;;;8.45;2.72;;;;;;;;;;5035659;28;20405;-61
2022/04/27 04:40:31;;;;;;;5.88;2.35;;;;;;;;;;5036070;28;20029;-62
2022/04/27 04:42:58;;;;;;;5.45;2.60;;;;;;;;;;5036535;28;20041;-62
2022/04/27 04:45:25;;;;;;;5.18;2.35;;;;;;;;;;5035917;28;20445;-62
2022/04/27 04:47:52;;;;;;;5.15;2.45;;;;;;;;;;5036413;28;20049;-62
2022/04/27 04:50:19;;;;;;;4.78;2.13;;;;;;;;;;5036265;28;20037;-62
2022/04/27 04:52:46;;;;;;;5.25;2.70;;;;;;;;;;5035802;28;20049;-62
2022/04/27 04:55:13;;;;;;;4.15;1.98;;;;;;;;;;5037169;28;20444;-62
2022/04/27 04:57:40;;;;;;;3.33;1.63;;;;;;;;;;5035620;28;20033;-63
2022/04/27 05:00:09;;;;;;;4.05;2.05;;;;;;;;;;5037463;28;20121;-63
2022/04/27 05:02:35;;;;;;;2.97;1.35;;;;;;;;;;5038638;28;20052;-63
2022/04/27 05:05:03;;;;;;;3.47;1.45;;;;;;;;;;5040311;28;20041;-63
2022/04/27 05:07:33;;;;;;;2.78;1.15;;;;;;;;;;5021638;28;20126;-63
2022/04/27 05:10:00;;;;;;;3.50;1.30;;;;;;;;;;5040607;28;20041;-63
2022/04/27 05:12:27;;;;;;;3.20;1.42;;;;;;;;;;5039051;28;20095;-63
2022/04/27 05:14:54;;;;;;;4.15;1.33;;;;;;;;;;5039275;28;20060;-62
2022/04/27 05:17:22;;;;;;;3.95;1.38;;;;;;;;;;5039023;28;20029;-63
2022/04/27 05:19:49;;;;;;;3.45;1.15;;;;;;;;;;5039888;28;20037;-63
2022/04/27 05:22:16;;;;;;;2.80;0.93;;;;;;;;;;5034304;28;20397;-63
2022/04/27 05:24:43;;;;;;;2.28;0.80;;;;;;;;;;5020359;28;20088;-62
2022/04/27 05:27:09;;;;;;;3.28;1.00;;;;;;;;;;5019704;28;20037;-62
2022/04/27 05:32:22;;;;;;;3.17;0.80;;;;;;;;;;5001505;28;20952;-62
2022/04/27 05:34:49;;;;;;;2.35;0.88;;;;;;;;;;5019889;28;20033;-62
2022/04/27 05:37:16;;;;;;;2.88;0.85;;;;;;;;;;5020314;28;20037;-62
2022/04/27 05:39:42;;;;;;;2.55;1.00;;;;;;;;;;5019662;28;20061;-63
2022/04/27 05:42:09;;;;;;;3.50;1.33;;;;;;;;;;5019664;28;20398;-63
2022/04/27 05:44:36;;;;;;;3.42;1.10;;;;;;;;;;5019141;28;20402;-62
2022/04/27 05:47:04;;;;;;;3.42;1.10;;;;;;;;;;5020858;28;20048;-64
2022/04/27 05:49:31;;;;;;;2.80;1.00;;;;;;;;;;5019218;28;20042;-62
2022/04/27 05:51:58;;;;;;;1.85;0.70;;;;;;;;;;5018928;28;20045;-63
2022/04/27 05:54:25;;;;;;;1.80;0.65;;;;;;;;;;5019358;28;20039;-62
2022/04/27 05:56:52;;;;;;;1.95;0.65;;;;;;;;;;5019768;28;20492;-63
2022/04/27 05:59:19;;;;;;;3.47;0.85;;;;;;;;;;5018396;28;20483;-63
2022/04/27 06:01:46;;;;;;;2.45;0.80;;;;;;;;;;5018939;28;20897;-63
2022/04/27 06:04:13;;;;;;;2.30;0.75;;;;;;;;;;5017949;28;20052;-63
2022/04/27 06:06:39;;;;;;;1.95;0.80;;;;;;;;;;5018685;28;20398;-62
2022/04/27 06:09:06;;;;;;;2.40;0.95;;;;;;;;;;5019810;28;20328;-63
2022/04/27 06:11:33;;;;;;;3.00;1.00;;;;;;;;;;5000257;28;20048;-63
2022/04/27 06:13:59;;;;;;;3.47;1.30;;;;;;;;;;5018922;28;20136;-63
2022/04/27 06:16:27;;;;;;;3.10;0.90;;;;;;;;;;5020029;28;20037;-62
2022/04/27 06:18:53;;;;;;;2.70;0.90;;;;;;;;;;5020054;28;20923;-62
2022/04/27 06:21:20;;;;;;;3.13;1.20;;;;;;;;;;5018698;28;20118;-62
2022/04/27 06:23:47;;;;;;;2.10;0.80;;;;;;;;;;5035904;28;20808;-63
2022/04/27 06:26:14;;;;;;;2.35;0.90;;;;;;;;;;5039301;28;20080;-63
2022/04/27 06:28:41;;;;;;;2.45;0.60;;;;;;;;;;5038662;28;20041;-63
2022/04/27 06:31:08;;;;;;;3.00;0.98;;;;;;;;;;5039556;28;20033;-62
2022/04/27 06:33:35;;;;;;;2.63;0.93;;;;;;;;;;5037011;28;20068;-63
2022/04/27 06:36:02;;;;;;;2.40;0.90;;;;;;;;;;5038863;28;20445;-63
2022/04/27 06:38:28;;;;;;;2.65;0.82;;;;;;;;;;5038932;28;20037;-63
2022/04/27 06:40:55;;;;;;;2.55;0.90;;;;;;;;;;5038657;28;20261;-62
2022/04/27 06:43:22;;;;;;;4.18;1.20;;;;;;;;;;5037910;28;20040;-62
2022/04/27 06:45:48;;;;;;;2.97;1.30;;;;;;;;;;5039215;28;20059;-62
2022/04/27 06:48:15;;;;;;;2.80;1.10;;;;;;;;;;5038902;28;20053;-63
2022/04/27 06:50:42;;;;;;;3.00;1.30;;;;;;;;;;5038969;28;20452;-62
2022/04/27 06:53:09;;;;;;;1.98;0.77;;;;;;;;;;5038446;28;20048;-64
2022/04/27 06:55:36;;;;;;;6.38;1.10;;;;;;;;;;5038550;28;20094;-62
2022/04/27 06:58:03;;;;;;;2.70;1.00;;;;;;;;;;5038387;28;20041;-63
2022/04/27 07:00:29;;;;;;;3.22;1.23;;;;;;;;;;5037493;28;20103;-62
2022/04/27 07:02:56;;;;;;;2.67;0.95;;;;;;;;;;5020321;28;20864;-62
2022/04/27 07:05:25;;;;;;;2.65;0.98;;;;;;;;;;5038108;28;20136;-62
2022/04/27 07:07:51;;;;;;;1.77;0.68;;;;;;;;;;5038569;28;20079;-63
2022/04/27 07:10:19;;;;;;;2.47;0.80;;;;;;;;;;5038223;28;20497;-62
2022/04/27 07:12:47;;;;;;;2.75;0.95;;;;;;;;;;5039298;28;20044;-62
2022/04/27 07:15:14;;;;;;;2.58;0.80;;;;;;;;;;5040144;28;20036;-62
2022/04/27 07:17:40;;;;;;;2.47;0.73;;;;;;;;;;5038711;28;20037;-62
2022/04/27 07:20:08;;;;;;;2.50;0.80;;;;;;;;;;5037700;28;20052;-63
2022/04/27 07:22:34;;;;;;;2.17;0.60;;;;;;;;;;5035809;28;20051;-62
2022/04/27 07:25:01;;;;;;;2.05;0.70;;;;;;;;;;5037212;28;20072;-62
2022/04/27 07:27:31;;;;;;;2.40;0.77;;;;;;;;;;5037730;28;20045;-62
2022/04/27 07:29:59;;;;;;;1.42;0.50;;;;;;;;;;5037429;28;20048;-62
2022/04/27 07:32:25;;;;;;;2.58;0.60;;;;;;;;;;5035869;28;20140;-62
2022/04/27 07:34:52;;;;;;;1.88;0.60;;;;;;;;;;5037976;28;20044;-62
2022/04/27 07:37:19;;;;;;;2.53;0.60;;;;;;;;;;5036475;28;20738;-62
2022/04/27 07:39:46;;;;;;;1.63;0.55;;;;;;;;;;5038864;28;20041;-62
2022/04/27 07:42:12;;;;;;;4.32;0.60;;;;;;;;;;5037398;28;20122;-63
2022/04/27 07:44:39;;;;;;;2.80;0.70;;;;;;;;;;5035973;28;20047;-62
2022/04/27 07:47:07;;;;;;;1.73;0.60;;;;;;;;;;5037760;28;20039;-62
2022/04/27 07:49:34;;;;;;;6.20;0.80;;;;;;;;;;5037057;28;20696;-62
2022/04/27 07:52:01;;;;;;;4.35;0.98;;;;;;;;;;5036649;28;20867;-62
2022/04/27 07:54:28;;;;;;;2.25;0.77;;;;;;;;;;5036143;28;20041;-62
2022/04/27 07:56:57;;;;;;;1.75;0.60;;;;;;;;;;5037389;28;20041;-62
2022/04/27 07:59:24;;;;;;;2.03;0.68;;;;;;;;;;5035998;28;20044;-62
2022/04/27 08:01:51;;;;;;;2.42;0.65;;;;;;;;;;5036736;28;20495;-62
2022/04/27 08:04:17;;;;;;;2.75;0.80;;;;;;;;;;5036905;28;20048;-62
2022/04/27 08:06:44;;;;;;;2.10;0.70;;;;;;;;;;5037325;28;20051;-62
2022/04/27 08:09:11;;;;;;;2.60;0.70;;;;;;;;;;5037316;28;20071;-62
2022/04/27 08:11:41;;;;;;;2.35;0.80;;;;;;;;;;5036191;28;20044;-62
2022/04/27 08:14:07;;;;;;;1.85;0.65;;;;;;;;;;5036150;28;20156;-63
2022/04/27 08:16:34;;;;;;;2.95;0.77;;;;;;;;;;5036386;28;20087;-63
2022/04/27 08:19:01;;;;;;;3.30;0.80;;;;;;;;;;5037105;28;20107;-63
2022/04/27 08:21:27;;;;;;;2.60;0.80;;;;;;;;;;5034590;28;20052;-63
2022/04/27 08:23:54;;;;;;;3.08;0.75;;;;;;;;;;5035733;28;20049;-63
2022/04/27 08:26:21;;;;;;;2.33;0.80;;;;;;;;;;5036492;28;20524;-63
2022/04/27 08:28:48;;;;;;;2.60;0.70;;;;;;;;;;5036216;28;20072;-63
2022/04/27 08:31:17;;;;;;;2.75;0.70;;;;;;;;;;5036492;28;20033;-64
2022/04/27 08:33:44;;;;;;;3.05;1.00;;;;;;;;;;5035714;28;20041;-64
2022/04/27 08:36:11;;;;;;;3.63;0.90;;;;;;;;;;5039804;28;20029;-64
2022/04/27 08:38:38;;;;;;;2.90;1.20;;;;;;;;;;5038925;28;20551;-64
2022/04/27 08:41:05;;;;;;;3.22;0.98;;;;;;;;;;5040728;28;20489;-63
2022/04/27 08:43:32;;;;;;;2.80;1.00;;;;;;;;;;5039325;28;20055;-63
2022/04/27 08:46:01;;;;;;;2.40;0.95;;;;;;;;;;5039758;28;20037;-63
2022/04/27 08:48:28;;;;;;;2.40;0.80;;;;;;;;;;5039949;28;20132;-64
2022/04/27 08:50:55;;;;;;;1.95;0.70;;;;;;;;;;5039899;28;21775;-63
2022/04/27 08:53:22;;;;;;;2.08;0.80;;;;;;;;;;5038248;28;20135;-62
2022/04/27 08:55:52;;;;;;;2.75;0.90;;;;;;;;;;5040077;28;20044;-64
2022/04/27 08:58:21;;;;;;;2.92;1.00;;;;;;;;;;5039327;28;20048;-63
2022/04/27 09:00:48;;;;;;;2.60;0.77;;;;;;;;;;5040033;28;20052;-63
2022/04/27 09:03:24;;;;;;;3.35;1.02;;;;;;;;;;5039049;28;20049;-63
2022/04/27 09:05:55;;;;;;;3.10;1.00;;;;;;;;;;5039240;28;20041;-64
2022/04/27 09:08:21;;;;;;;4.03;0.85;;;;;;;;;;5038382;28;20041;-63
2022/04/27 09:10:48;;;;;;;2.42;1.00;;;;;;;;;;5038932;28;20099;-63
2022/04/27 09:13:15;;;;;;;2.22;0.75;;;;;;;;;;5039444;28;20167;-63
2022/04/27 09:15:42;;;;;;;2.42;0.80;;;;;;;;;;5038966;28;20040;-62
2022/04/27 09:21:11;;;;;;;2.45;0.80;;;;;;;;;;5039393;28;20090;-62
2022/04/27 09:23:40;;;;;;;4.65;1.20;;;;;;;;;;5037824;28;20049;-62
2022/04/27 09:26:19;;;;;;;2.80;0.90;;;;;;;;;;5039629;28;20048;-63
2022/04/27 09:28:50;;;;;;;2.92;1.02;;;;;;;;;;5039419;28;20041;-62
2022/04/27 09:31:45;;;;;;;3.80;1.00;;;;;;;;;;5038764;28;20040;-63
2022/04/27 09:34:27;;;;;;;2.30;0.80;;;;;;;;;;5018037;28;20140;-63
2022/04/27 09:36:54;;;;;;;3.45;1.10;;;;;;;;;;5039117;28;20556;-63
2022/04/27 09:39:27;;;;;;;3.28;1.30;;;;;;;;;;5038627;28;20045;-63
2022/04/27 09:42:02;;;;;;;4.65;1.20;;;;;;;;;;5038416;28;20090;-63
2022/04/27 09:44:29;;;;;;;2.47;0.88;;;;;;;;;;5038729;28;20052;-63
2022/04/27 09:46:57;;;;;;;3.03;0.90;;;;;;;;;;5039177;28;20037;-63
2022/04/27 09:49:24;;;;;;;2.75;0.93;;;;;;;;;;5038100;28;20033;-63
2022/04/27 09:51:54;;;;;;;4.85;1.10;;;;;;;;;;5038675;28;20051;-63
2022/04/27 09:54:23;;;;;;;2.28;1.00;;;;;;;;;;5037877;28;20389;-63
2022/04/27 09:56:54;;;;;;;4.15;1.13;;;;;;;;;;5039250;28;21962;-62
2022/04/27 09:59:26;;;;;;;2.92;1.02;;;;;;;;;;5038685;28;20045;-63
2022/04/27 10:01:56;;;;;;;2.63;0.93;;;;;;;;;;5039017;28;20045;-63
2022/04/27 10:04:30;;;;;;;3.10;1.20;;;;;;;;;;5037701;28;22223;-63
2022/04/27 10:07:04;;;;;;;2.28;0.77;;;;;;;;;;5039266;28;20481;-62
2022/04/27 10:09:31;;;;;;;3.05;0.90;;;;;;;;;;5038414;28;20040;-62
2022/04/27 10:11:59;;;;;;;3.75;0.82;;;;;;;;;;5039066;28;20049;-62
2022/04/27 10:14:28;;;;;;;2.88;1.02;;;;;;;;;;5039107;28;20036;-62
2022/04/27 10:16:56;;;;;;;6.72;1.05;;;;;;;;;;5011638;28;20045;-62
2022/04/27 10:19:23;;;;;;;2.92;0.90;;;;;;;;;;5039496;28;20047;-62
2022/04/27 10:21:57;;;;;;;2.50;1.08;;;;;;;;;;5037588;28;20792;-63
2022/04/27 10:24:37;;;;;;;3.03;1.10;;;;;;;;;;5037780;28;20053;-62
2022/04/27 10:27:30;;;;;;;3.03;1.02;;;;;;;;;;5038462;28;20081;-63
2022/04/27 10:30:00;;;;;;;2.67;1.00;;;;;;;;;;5034475;28;20037;-62
2022/04/27 10:32:42;;;;;;;2.90;1.00;;;;;;;;;;5038639;28;20192;-63
2022/04/27 10:35:27;;;;;;;2.97;1.00;;;;;;;;;;5038735;28;20041;-62
2022/04/27 10:37:59;;;;;;;6.43;1.17;;;;;;;;;;5039104;28;20051;-62
2022/04/27 10:40:31;;;;;;;7.03;1.13;;;;;;;;;;5037773;28;20029;-62
2022/04/27 10:43:10;;;;;;;4.55;1.30;;;;;;;;;;5021129;28;20040;-62
2022/04/27 10:45:41;;;;;;;4.05;1.25;;;;;;;;;;5038824;28;20095;-62
2022/04/27 10:48:09;;;;;;;7.70;1.50;;;;;;;;;;5038928;28;20037;-62
2022/04/27 10:50:38;;;;;;;3.33;1.08;;;;;;;;;;5037596;28;20525;-62
2022/04/27 10:53:15;;;;;;;3.90;1.10;;;;;;;;;;5038149;28;20049;-62
2022/04/27 10:55:42;;;;;;;4.85;1.20;;;;;;;;;;5038920;28;20044;-62
2022/04/27 10:58:12;;;;;;;4.57;1.10;;;;;;;;;;5038485;28;20033;-62
2022/04/27 11:00:57;;;;;;;4.68;1.20;;;;;;;;;;5037427;28;20080;-62
2022/04/27 11:03:25;;;;;;;3.58;1.20;;;;;;;;;;5037724;28;20614;-62
2022/04/27 11:05:52;;;;;;;3.95;1.50;;;;;;;;;;5038558;28;20036;-62
2022/04/27 11:08:37;;;;;;;7.15;1.70;;;;;;;;;;5037054;28;20436;-62
2022/04/27 11:11:06;;;;;;;4.40;1.50;;;;;;;;;;5038746;28;20037;-62
2022/04/27 11:13:36;;;;;;;3.42;1.30;;;;;;;;;;5037591;28;20497;-62
2022/04/27 11:16:10;;;;;;;5.05;1.40;;;;;;;;;;5037948;28;20045;-62
2022/04/27 11:18:56;;;;;;;6.75;1.65;;;;;;;;;;5037203;28;20041;-62
2022/04/27 11:21:24;;;;;;;3.75;1.52;;;;;;;;;;5035899;28;20436;-62
2022/04/27 11:23:51;;;;;;;3.67;1.20;;;;;;;;;;5037395;28;20503;-62
2022/04/27 11:26:18;;;;;;;4.55;1.38;;;;;;;;;;5037031;28;20048;-62
2022/04/27 11:28:48;;;;;;;4.43;1.35;;;;;;;;;;5037519;28;20044;-62
2022/04/27 11:31:15;;;;;;;6.10;1.55;;;;;;;;;;5036828;28;20811;-63
2022/04/27 11:33:42;;;;;;;4.25;1.60;;;;;;;;;;5036658;28;20567;-63
2022/04/27 11:36:21;;;;;;;9.48;1.60;;;;;;;;;;5037952;28;20084;-62
2022/04/27 11:38:48;;;;;;;5.20;1.48;;;;;;;;;;5037158;28;20370;-63
2022/04/27 11:41:23;;;;;;;7.85;1.50;;;;;;;;;;5037378;28;20044;-63
2022/04/27 11:43:51;;;;;;;6.30;1.70;;;;;;;;;;5037154;28;20044;-63
2022/04/27 11:46:18;;;;;;;3.67;1.35;;;;;;;;;;5038587;28;20866;-63
2022/04/27 11:48:48;;;;;;;4.15;1.17;;;;;;;;;;5038201;28;20515;-63
2022/04/27 11:51:16;;;;;;;4.72;1.60;;;;;;;;;;5038233;28;20044;-63
2022/04/27 11:53:49;;;;;;;3.42;1.15;;;;;;;;;;5037095;28;20144;-63
2022/04/27 11:56:17;;;;;;;4.32;1.50;;;;;;;;;;5037935;28;20117;-63
2022/04/27 11:58:48;;;;;;;4.72;1.70;;;;;;;;;;5036532;28;20179;-63
2022/04/27 12:01:21;;;;;;;4.72;1.58;;;;;;;;;;5036726;28;20128;-62
2022/04/27 12:03:51;;;;;;;3.22;1.13;;;;;;;;;;5037370;28;20043;-61
2022/04/27 12:06:18;;;;;;;10.32;1.85;;;;;;;;;;5037518;28;20560;-63
2022/04/27 12:08:45;;;;;;;4.25;1.48;;;;;;;;;;5037259;28;20143;-63
2022/04/27 12:11:21;;;;;;;5.28;1.70;;;;;;;;;;5039518;28;20041;-63
2022/04/27 12:13:48;;;;;;;5.25;1.40;;;;;;;;;;5041934;28;20505;-61
2022/04/27 12:16:15;;;;;;;4.45;1.15;;;;;;;;;;5041589;28;20048;-62
2022/04/27 12:18:52;;;;;;;5.85;1.85;;;;;;;;;;5041984;28;21010;-62
2022/04/27 12:21:27;;;;;;;8.35;1.42;;;;;;;;;;5039489;28;20182;-66
2022/04/27 12:23:57;;;;;;;5.55;1.63;;;;;;;;;;5041497;28;20500;-63
2022/04/27 12:26:24;;;;;;;6.13;1.40;;;;;;;;;;5041080;28;20144;-63
2022/04/27 12:28:51;;;;;;;4.03;1.40;;;;;;;;;;5040862;28;20118;-63
2022/04/27 12:31:23;;;;;;;2.88;1.13;;;;;;;;;;5040549;28;20658;-62
2022/04/27 12:33:50;;;;;;;4.30;1.20;;;;;;;;;;5040753;28;20854;-63
2022/04/27 12:39:25;;;;;;;2.47;0.85;;;;;;;;;;5040347;28;20079;-63
2022/04/27 12:41:54;;;;;;;3.15;1.05;;;;;;;;;;5040109;28;20033;-61
2022/04/27 12:44:25;;;;;;;2.65;0.80;;;;;;;;;;5040600;28;20208;-65
2022/04/27 12:47:06;;;;;;;4.72;1.08;;;;;;;;;;5041511;28;20176;-58
2022/04/27 12:49:37;;;;;;;2.72;0.60;;;;;;;;;;5039916;28;20041;-62
2022/04/27 12:52:17;;;;;;;2.22;0.77;;;;;;;;;;5040561;28;20052;-61
2022/04/27 12:54:45;;;;;;;2.80;1.00;;;;;;;;;;5039486;28;20441;-63
2022/04/27 12:57:12;;;;;;;4.05;1.08;;;;;;;;;;5037058;28;20407;-63
2022/04/27 12:59:58;;;;;;;3.60;1.05;;;;;;;;;;5040070;28;20136;-60
2022/04/27 13:02:26;;;;;;;4.20;0.85;;;;;;;;;;5040043;28;20064;-62
2022/04/27 13:04:53;;;;;;;4.43;0.95;;;;;;;;;;5040811;28;20369;-62
2022/04/27 13:07:20;;;;;;;3.35;1.00;;;;;;;;;;5039583;28;20044;-63
2022/04/27 13:12:36;;;;;;;3.92;1.10;;;;;;;;;;5040052;28;20095;-63
2022/04/27 13:15:03;;;;;;;4.22;1.15;;;;;;;;;;5040309;28;20052;-63
2022/04/27 13:17:30;;;;;;;8.25;1.48;;;;;;;;;;5038387;28;20113;-64
2022/04/27 13:19:57;;;;;;;3.50;0.90;;;;;;;;;;5020115;28;20045;-63
2022/04/27 13:22:24;;;;;;;4.57;1.10;;;;;;;;;;5038089;28;20542;-63
2022/04/27 13:24:51;;;;;;;2.70;0.95;;;;;;;;;;5040236;28;20454;-62
2022/04/27 13:27:23;;;;;;;3.00;1.05;;;;;;;;;;5039961;28;20160;-62
2022/04/27 13:29:50;;;;;;;2.85;0.80;;;;;;;;;;5039167;28;20082;-61
2022/04/27 13:32:17;;;;;;;4.05;0.90;;;;;;;;;;5041410;28;20520;-63
2022/04/27 13:34:44;;;;;;;4.20;1.20;;;;;;;;;;5040548;28;20037;-63
2022/04/27 13:37:10;;;;;;;3.15;0.90;;;;;;;;;;5040432;28;20059;-62
2022/04/27 13:39:37;;;;;;;4.05;1.00;;;;;;;;;;5039729;28;20069;-63
2022/04/27 13:42:07;;;;;;;8.25;0.77;;;;;;;;;;5039860;28;20441;-63
2022/04/27 13:44:34;;;;;;;2.47;0.90;;;;;;;;;;5038659;28;20135;-62
2022/04/27 13:47:01;;;;;;;3.10;0.85;;;;;;;;;;5040503;28;20029;-62
2022/04/27 13:49:27;;;;;;;4.60;1.10;;;;;;;;;;5040068;28;20071;-63
2022/04/27 13:51:55;;;;;;;3.13;0.90;;;;;;;;;;5038785;28;20123;-63
2022/04/27 13:54:22;;;;;;;7.05;1.00;;;;;;;;;;5038598;28;20040;-66
2022/04/27 13:56:48;;;;;;;4.15;0.90;;;;;;;;;;5040302;28;20068;-64
2022/04/27 13:59:15;;;;;;;4.32;1.10;;;;;;;;;;5039253;28;20465;-65
2022/04/27 14:01:44;;;;;;;6.93;1.10;;;;;;;;;;5037392;28;20037;-66
2022/04/27 14:04:11;;;;;;;5.47;0.90;;;;;;;;;;5020064;28;20048;-66
2022/04/27 14:06:38;;;;;;;11.43;1.05;;;;;;;;;;5037670;28;20043;-66
2022/04/27 14:09:05;;;;;;;3.25;1.02;;;;;;;;;;5039949;28;20107;-66
2022/04/27 14:14:17;;;;;;;5.20;1.30;;;;;;;;;;5040829;28;20043;-65
2022/04/27 14:19:34;;;;;;;3.90;1.02;;;;;;;;;;5038602;28;20052;-65
2022/04/27 14:22:01;;;;;;;5.03;1.30;;;;;;;;;;5038804;28;20588;-66
2022/04/27 14:24:28;;;;;;;4.05;1.25;;;;;;;;;;5039094;28;20073;-66
2022/04/27 14:26:55;;;;;;;3.10;1.02;;;;;;;;;;5040542;28;20040;-66
2022/04/27 14:29:22;;;;;;;5.82;1.02;;;;;;;;;;5037769;28;20516;-66
2022/04/27 14:31:49;;;;;;;4.10;1.10;;;;;;;;;;5037552;28;20120;-66
2022/04/27 14:34:15;;;;;;;5.28;1.00;;;;;;;;;;5039551;28;20040;-66
2022/04/27 14:36:42;;;;;;;3.70;1.13;;;;;;;;;;5038465;28;20051;-66
2022/04/27 14:39:09;;;;;;;3.22;1.10;;;;;;;;;;5022039;28;20048;-66
2022/04/27 14:41:37;;;;;;;4.60;1.02;;;;;;;;;;5037238;28;20040;-67
2022/04/27 14:44:03;;;;;;;2.72;0.90;;;;;;;;;;5020848;28;20160;-66
2022/04/27 14:46:30;;;;;;;6.03;1.23;;;;;;;;;;5037091;28;20052;-66
2022/04/27 14:48:57;;;;;;;4.70;0.88;;;;;;;;;;5038462;28;20460;-67
2022/04/27 14:51:24;;;;;;;3.80;1.08;;;;;;;;;;5037167;28;20037;-66
2022/04/27 14:53:50;;;;;;;6.88;1.05;;;;;;;;;;5020179;28;20033;-66
2022/04/27 14:56:17;;;;;;;4.35;0.90;;;;;;;;;;5038881;28;20040;-66
2022/04/27 14:58:44;;;;;;;3.17;0.98;;;;;;;;;;5038032;28;20040;-67
2022/04/27 15:01:12;;;;;;;3.95;0.93;;;;;;;;;;5038233;28;20168;-65
2022/04/27 15:03:39;;;;;;;4.57;0.80;;;;;;;;;;5039203;28;20051;-66
2022/04/27 15:06:06;;;;;;;2.40;0.85;;;;;;;;;;5038006;28;20048;-66
2022/04/27 15:08:34;;;;;;;4.57;1.00;;;;;;;;;;5037153;28;20060;-66
2022/04/27 15:11:01;;;;;;;6.25;0.93;;;;;;;;;;5037233;28;20041;-66
2022/04/27 15:13:28;;;;;;;2.50;0.90;;;;;;;;;;5036586;28;20045;-66
2022/04/27 15:15:54;;;;;;;3.70;0.88;;;;;;;;;;5020265;28;20128;-66
2022/04/27 15:18:26;;;;;;;2.63;0.82;;;;;;;;;;5038258;28;20496;-66
2022/04/27 15:23:38;;;;;;;2.75;0.90;;;;;;;;;;5022069;28;20052;-66